sensor_id;sensor_type;location;lat;lon;timestamp;P1;durP1;ratioP1;P2;durP2;ratioP2
16029;SDS011;34770;49.272;11.070;2022-07-29T00:01:55;5.55;;;2.50;;
16029;SDS011;34770;49.272;11.070;2022-07-29T00:04:20;2.60;;;2.40;;
16029;SDS011;34770;49.272;11.070;2022-07-29T00:06:46;2.33;;;2.13;;
16029;SDS011;34770;49.272;11.070;2022-07-29T00:09:11;3.88;;;2.20;;
16029;SDS011;34770;49.272;11.070;2022-07-29T00:11:37;3.47;;;2.35;;
16029;SDS011;34770;49.272;11.070;2022-07-29T00:14:04;4.72;;;2.80;;
16029;SDS011;34770;49.272;11.070;2022-07-29T00:16:29;6.53;;;2.40;;
16029;SDS011;34770;49.272;11.070;2022-07-29T00:18:54;3.17;;;1.90;;
16029;SDS011;34770;49.272;11.070;2022-07-29T00:21:20;3.88;;;2.35;;
16029;SDS011;34770;49.272;11.070;2022-07-29T00:23:45;5.05;;;2.53;;
16029;SDS011;34770;49.272;11.070;2022-07-29T00:26:11;4.80;;;2.65;;
16029;SDS011;34770;49.272;11.070;2022-07-29T00:28:36;2.40;;;2.20;;
16029;SDS011;34770;49.272;11.070;2022-07-29T00:31:02;2.53;;;2.33;;
16029;SDS011;34770;49.272;11.070;2022-07-29T00:33:28;5.18;;;2.80;;
16029;SDS011;34770;49.272;11.070;2022-07-29T00:35:54;2.75;;;2.30;;
16029;SDS011;34770;49.272;11.070;2022-07-29T00:38:19;2.97;;;2.47;;
16029;SDS011;34770;49.272;11.070;2022-07-29T00:40:45;3.80;;;2.58;;
16029;SDS011;34770;49.272;11.070;2022-07-29T00:43:12;4.65;;;2.83;;
16029;SDS011;34770;49.272;11.070;2022-07-29T00:45:38;2.53;;;2.30;;
16029;SDS011;34770;49.272;11.070;2022-07-29T00:48:04;3.45;;;2.08;;
16029;SDS011;34770;49.272;11.070;2022-07-29T00:50:30;3.25;;;2.90;;
16029;SDS011;34770;49.272;11.070;2022-07-29T00:52:57;3.35;;;2.45;;
16029;SDS011;34770;49.272;11.070;2022-07-29T00:55:23;3.33;;;3.00;;
16029;SDS011;34770;49.272;11.070;2022-07-29T00:57:49;3.05;;;2.75;;
16029;SDS011;34770;49.272;11.070;2022-07-29T01:00:16;3.38;;;3.05;;
16029;SDS011;34770;49.272;11.070;2022-07-29T01:02:46;4.50;;;2.63;;
16029;SDS011;34770;49.272;11.070;2022-07-29T01:05:13;3.45;;;2.83;;
16029;SDS011;34770;49.272;11.070;2022-07-29T01:07:41;2.92;;;2.65;;
16029;SDS011;34770;49.272;11.070;2022-07-29T01:10:07;6.78;;;2.63;;
16029;SDS011;34770;49.272;11.070;2022-07-29T01:12:35;3.63;;;2.30;;
16029;SDS011;34770;49.272;11.070;2022-07-29T01:15:03;6.85;;;2.70;;
16029;SDS011;34770;49.272;11.070;2022-07-29T01:17:32;4.05;;;2.70;;
16029;SDS011;34770;49.272;11.070;2022-07-29T01:20:09;2.95;;;2.60;;
16029;SDS011;34770;49.272;11.070;2022-07-29T01:29:03;4.13;;;2.88;;
16029;SDS011;34770;49.272;11.070;2022-07-29T01:31:58;4.80;;;2.90;;
16029;SDS011;34770;49.272;11.070;2022-07-29T01:37:21;4.68;;;3.40;;
16029;SDS011;34770;49.272;11.070;2022-07-29T01:39:51;6.35;;;2.78;;
16029;SDS011;34770;49.272;11.070;2022-07-29T01:42:36;3.97;;;3.40;;
16029;SDS011;34770;49.272;11.070;2022-07-29T01:50:33;4.18;;;2.90;;
16029;SDS011;34770;49.272;11.070;2022-07-29T01:53:02;4.78;;;3.03;;
16029;SDS011;34770;49.272;11.070;2022-07-29T01:55:33;7.57;;;3.17;;
16029;SDS011;34770;49.272;11.070;2022-07-29T01:58:02;4.63;;;3.33;;
16029;SDS011;34770;49.272;11.070;2022-07-29T02:00:31;3.95;;;2.90;;
16029;SDS011;34770;49.272;11.070;2022-07-29T02:02:58;4.05;;;3.00;;
16029;SDS011;34770;49.272;11.070;2022-07-29T02:05:30;5.80;;;3.05;;
16029;SDS011;34770;49.272;11.070;2022-07-29T02:07:58;3.53;;;2.97;;
16029;SDS011;34770;49.272;11.070;2022-07-29T02:10:26;4.70;;;2.70;;
16029;SDS011;34770;49.272;11.070;2022-07-29T02:12:54;3.30;;;3.00;;
16029;SDS011;34770;49.272;11.070;2022-07-29T02:15:22;4.03;;;3.05;;
16029;SDS011;34770;49.272;11.070;2022-07-29T02:17:51;4.20;;;3.38;;
16029;SDS011;34770;49.272;11.070;2022-07-29T02:20:22;2.78;;;2.55;;
16029;SDS011;34770;49.272;11.070;2022-07-29T02:22:49;4.18;;;3.10;;
16029;SDS011;34770;49.272;11.070;2022-07-29T02:25:17;3.33;;;2.90;;
16029;SDS011;34770;49.272;11.070;2022-07-29T02:27:43;3.30;;;2.95;;
16029;SDS011;34770;49.272;11.070;2022-07-29T02:30:10;3.70;;;2.90;;
16029;SDS011;34770;49.272;11.070;2022-07-29T02:32:37;5.45;;;2.63;;
16029;SDS011;34770;49.272;11.070;2022-07-29T02:35:05;3.92;;;3.05;;
16029;SDS011;34770;49.272;11.070;2022-07-29T02:37:33;4.15;;;3.30;;
16029;SDS011;34770;49.272;11.070;2022-07-29T02:40:00;4.55;;;2.80;;
16029;SDS011;34770;49.272;11.070;2022-07-29T02:42:26;3.78;;;2.75;;
16029;SDS011;34770;49.272;11.070;2022-07-29T02:44:53;3.30;;;2.65;;
16029;SDS011;34770;49.272;11.070;2022-07-29T02:47:24;5.50;;;2.65;;
16029;SDS011;34770;49.272;11.070;2022-07-29T02:52:31;3.42;;;2.55;;
16029;SDS011;34770;49.272;11.070;2022-07-29T02:57:49;3.00;;;2.28;;
16029;SDS011;34770;49.272;11.070;2022-07-29T03:00:19;3.38;;;3.08;;
16029;SDS011;34770;49.272;11.070;2022-07-29T03:02:46;4.10;;;2.70;;
16029;SDS011;34770;49.272;11.070;2022-07-29T03:05:18;2.95;;;2.65;;
16029;SDS011;34770;49.272;11.070;2022-07-29T03:07:45;3.53;;;2.50;;
16029;SDS011;34770;49.272;11.070;2022-07-29T03:10:14;3.65;;;3.20;;
16029;SDS011;34770;49.272;11.070;2022-07-29T03:12:40;5.55;;;3.10;;
16029;SDS011;34770;49.272;11.070;2022-07-29T03:15:06;3.75;;;2.40;;
16029;SDS011;34770;49.272;11.070;2022-07-29T03:17:33;5.03;;;2.40;;
16029;SDS011;34770;49.272;11.070;2022-07-29T03:19:59;3.85;;;2.80;;
16029;SDS011;34770;49.272;11.070;2022-07-29T03:22:25;5.22;;;2.53;;
16029;SDS011;34770;49.272;11.070;2022-07-29T03:24:51;4.53;;;2.83;;
16029;SDS011;34770;49.272;11.070;2022-07-29T03:27:16;3.47;;;2.70;;
16029;SDS011;34770;49.272;11.070;2022-07-29T03:29:42;4.80;;;3.13;;
16029;SDS011;34770;49.272;11.070;2022-07-29T03:32:07;3.67;;;3.10;;
16029;SDS011;34770;49.272;11.070;2022-07-29T03:34:33;5.78;;;2.42;;
16029;SDS011;34770;49.272;11.070;2022-07-29T03:36:58;3.33;;;3.00;;
16029;SDS011;34770;49.272;11.070;2022-07-29T03:39:24;3.40;;;2.60;;
16029;SDS011;34770;49.272;11.070;2022-07-29T03:41:55;3.75;;;2.72;;
16029;SDS011;34770;49.272;11.070;2022-07-29T03:44:23;3.30;;;2.90;;
16029;SDS011;34770;49.272;11.070;2022-07-29T03:46:51;2.90;;;2.70;;
16029;SDS011;34770;49.272;11.070;2022-07-29T03:49:19;3.75;;;3.22;;
16029;SDS011;34770;49.272;11.070;2022-07-29T03:51:46;4.75;;;2.75;;
16029;SDS011;34770;49.272;11.070;2022-07-29T03:54:12;4.32;;;2.83;;
16029;SDS011;34770;49.272;11.070;2022-07-29T03:56:39;4.28;;;2.72;;
16029;SDS011;34770;49.272;11.070;2022-07-29T03:59:08;3.17;;;2.88;;
16029;SDS011;34770;49.272;11.070;2022-07-29T04:01:35;3.10;;;2.53;;
16029;SDS011;34770;49.272;11.070;2022-07-29T04:04:03;4.68;;;3.30;;
16029;SDS011;34770;49.272;11.070;2022-07-29T04:06:36;4.97;;;3.63;;
16029;SDS011;34770;49.272;11.070;2022-07-29T04:09:10;7.63;;;3.17;;
16029;SDS011;34770;49.272;11.070;2022-07-29T04:11:36;5.80;;;3.50;;
16029;SDS011;34770;49.272;11.070;2022-07-29T04:14:03;2.65;;;2.45;;
16029;SDS011;34770;49.272;11.070;2022-07-29T04:16:29;4.30;;;2.78;;
16029;SDS011;34770;49.272;11.070;2022-07-29T04:18:54;8.18;;;3.47;;
16029;SDS011;34770;49.272;11.070;2022-07-29T04:21:19;4.43;;;3.05;;
16029;SDS011;34770;49.272;11.070;2022-07-29T04:23:45;5.45;;;2.78;;
16029;SDS011;34770;49.272;11.070;2022-07-29T04:26:14;3.20;;;2.90;;
16029;SDS011;34770;49.272;11.070;2022-07-29T04:28:39;5.00;;;2.80;;
16029;SDS011;34770;49.272;11.070;2022-07-29T04:31:05;4.95;;;2.65;;
16029;SDS011;34770;49.272;11.070;2022-07-29T04:33:30;5.15;;;3.13;;
16029;SDS011;34770;49.272;11.070;2022-07-29T04:35:56;3.92;;;2.78;;
16029;SDS011;34770;49.272;11.070;2022-07-29T04:38:21;5.75;;;3.00;;
16029;SDS011;34770;49.272;11.070;2022-07-29T04:40:47;5.75;;;3.00;;
16029;SDS011;34770;49.272;11.070;2022-07-29T04:43:12;3.83;;;2.92;;
16029;SDS011;34770;49.272;11.070;2022-07-29T04:45:37;4.00;;;3.22;;
16029;SDS011;34770;49.272;11.070;2022-07-29T04:48:03;3.78;;;2.90;;
16029;SDS011;34770;49.272;11.070;2022-07-29T04:50:29;4.60;;;3.13;;
16029;SDS011;34770;49.272;11.070;2022-07-29T04:52:54;4.97;;;3.17;;
16029;SDS011;34770;49.272;11.070;2022-07-29T04:55:19;5.35;;;2.92;;
16029;SDS011;34770;49.272;11.070;2022-07-29T04:57:45;3.97;;;2.67;;
16029;SDS011;34770;49.272;11.070;2022-07-29T05:00:10;4.03;;;2.72;;
16029;SDS011;34770;49.272;11.070;2022-07-29T05:02:36;4.15;;;3.20;;
16029;SDS011;34770;49.272;11.070;2022-07-29T05:05:02;4.50;;;2.65;;
16029;SDS011;34770;49.272;11.070;2022-07-29T05:07:27;3.40;;;3.05;;
16029;SDS011;34770;49.272;11.070;2022-07-29T05:09:52;3.92;;;2.65;;
16029;SDS011;34770;49.272;11.070;2022-07-29T05:12:18;3.40;;;2.72;;
16029;SDS011;34770;49.272;11.070;2022-07-29T05:14:43;3.25;;;2.75;;
16029;SDS011;34770;49.272;11.070;2022-07-29T05:17:09;4.03;;;3.10;;
16029;SDS011;34770;49.272;11.070;2022-07-29T05:19:34;3.78;;;3.05;;
16029;SDS011;34770;49.272;11.070;2022-07-29T05:22:00;3.15;;;2.83;;
16029;SDS011;34770;49.272;11.070;2022-07-29T05:24:25;3.05;;;2.53;;
16029;SDS011;34770;49.272;11.070;2022-07-29T05:26:51;4.22;;;3.53;;
16029;SDS011;34770;49.272;11.070;2022-07-29T05:29:16;4.43;;;3.05;;
16029;SDS011;34770;49.272;11.070;2022-07-29T05:31:41;5.05;;;3.17;;
16029;SDS011;34770;49.272;11.070;2022-07-29T05:34:07;5.20;;;3.00;;
16029;SDS011;34770;49.272;11.070;2022-07-29T05:36:32;4.70;;;3.35;;
16029;SDS011;34770;49.272;11.070;2022-07-29T05:38:57;3.47;;;3.17;;
16029;SDS011;34770;49.272;11.070;2022-07-29T05:41:24;4.82;;;3.78;;
16029;SDS011;34770;49.272;11.070;2022-07-29T05:43:49;5.50;;;3.45;;
16029;SDS011;34770;49.272;11.070;2022-07-29T05:46:15;7.00;;;3.55;;
16029;SDS011;34770;49.272;11.070;2022-07-29T05:48:40;3.97;;;3.40;;
16029;SDS011;34770;49.272;11.070;2022-07-29T05:51:06;4.05;;;3.65;;
16029;SDS011;34770;49.272;11.070;2022-07-29T05:53:31;7.05;;;3.90;;
16029;SDS011;34770;49.272;11.070;2022-07-29T05:55:56;9.65;;;4.47;;
16029;SDS011;34770;49.272;11.070;2022-07-29T05:58:22;5.32;;;3.65;;
16029;SDS011;34770;49.272;11.070;2022-07-29T06:00:47;6.53;;;3.40;;
16029;SDS011;34770;49.272;11.070;2022-07-29T06:03:13;5.65;;;3.92;;
16029;SDS011;34770;49.272;11.070;2022-07-29T06:05:38;4.18;;;3.10;;
16029;SDS011;34770;49.272;11.070;2022-07-29T06:08:04;5.22;;;4.45;;
16029;SDS011;34770;49.272;11.070;2022-07-29T06:10:32;6.75;;;3.70;;
16029;SDS011;34770;49.272;11.070;2022-07-29T06:12:57;4.38;;;3.65;;
16029;SDS011;34770;49.272;11.070;2022-07-29T06:15:23;4.28;;;3.35;;
16029;SDS011;34770;49.272;11.070;2022-07-29T06:17:48;5.30;;;3.70;;
16029;SDS011;34770;49.272;11.070;2022-07-29T06:20:13;6.32;;;3.35;;
16029;SDS011;34770;49.272;11.070;2022-07-29T06:22:39;6.65;;;3.30;;
16029;SDS011;34770;49.272;11.070;2022-07-29T06:25:04;4.03;;;3.63;;
16029;SDS011;34770;49.272;11.070;2022-07-29T06:27:30;5.60;;;3.50;;
16029;SDS011;34770;49.272;11.070;2022-07-29T06:29:55;5.53;;;3.50;;
16029;SDS011;34770;49.272;11.070;2022-07-29T06:32:21;4.75;;;3.38;;
16029;SDS011;34770;49.272;11.070;2022-07-29T06:34:47;4.05;;;3.35;;
16029;SDS011;34770;49.272;11.070;2022-07-29T06:37:12;5.47;;;3.63;;
16029;SDS011;34770;49.272;11.070;2022-07-29T06:39:39;5.30;;;3.90;;
16029;SDS011;34770;49.272;11.070;2022-07-29T06:42:04;3.67;;;3.15;;
16029;SDS011;34770;49.272;11.070;2022-07-29T06:44:30;10.15;;;3.72;;
16029;SDS011;34770;49.272;11.070;2022-07-29T06:46:56;6.88;;;3.00;;
16029;SDS011;34770;49.272;11.070;2022-07-29T06:49:22;5.90;;;3.53;;
16029;SDS011;34770;49.272;11.070;2022-07-29T06:51:49;3.90;;;2.75;;
16029;SDS011;34770;49.272;11.070;2022-07-29T06:54:14;3.53;;;2.95;;
16029;SDS011;34770;49.272;11.070;2022-07-29T06:56:39;4.28;;;3.20;;
16029;SDS011;34770;49.272;11.070;2022-07-29T06:59:10;6.07;;;2.80;;
16029;SDS011;34770;49.272;11.070;2022-07-29T07:01:36;6.35;;;3.00;;
16029;SDS011;34770;49.272;11.070;2022-07-29T07:04:03;5.93;;;3.13;;
16029;SDS011;34770;49.272;11.070;2022-07-29T07:06:29;7.22;;;4.07;;
16029;SDS011;34770;49.272;11.070;2022-07-29T07:08:54;5.28;;;3.00;;
16029;SDS011;34770;49.272;11.070;2022-07-29T07:11:20;4.25;;;3.45;;
16029;SDS011;34770;49.272;11.070;2022-07-29T07:13:45;5.22;;;3.40;;
16029;SDS011;34770;49.272;11.070;2022-07-29T07:16:10;6.93;;;3.47;;
16029;SDS011;34770;49.272;11.070;2022-07-29T07:18:36;3.95;;;2.95;;
16029;SDS011;34770;49.272;11.070;2022-07-29T07:21:01;7.32;;;3.20;;
16029;SDS011;34770;49.272;11.070;2022-07-29T07:23:27;4.85;;;3.08;;
16029;SDS011;34770;49.272;11.070;2022-07-29T07:25:52;4.85;;;3.05;;
16029;SDS011;34770;49.272;11.070;2022-07-29T07:28:18;4.55;;;2.80;;
16029;SDS011;34770;49.272;11.070;2022-07-29T07:30:44;4.53;;;3.20;;
16029;SDS011;34770;49.272;11.070;2022-07-29T07:33:10;3.65;;;3.05;;
16029;SDS011;34770;49.272;11.070;2022-07-29T07:35:35;5.82;;;3.60;;
16029;SDS011;34770;49.272;11.070;2022-07-29T07:38:01;4.25;;;3.28;;
16029;SDS011;34770;49.272;11.070;2022-07-29T07:40:26;3.22;;;2.90;;
16029;SDS011;34770;49.272;11.070;2022-07-29T07:42:51;4.53;;;3.15;;
16029;SDS011;34770;49.272;11.070;2022-07-29T07:45:17;6.88;;;3.75;;
16029;SDS011;34770;49.272;11.070;2022-07-29T07:47:42;3.92;;;3.00;;
16029;SDS011;34770;49.272;11.070;2022-07-29T07:50:09;4.80;;;3.35;;
16029;SDS011;34770;49.272;11.070;2022-07-29T07:52:45;3.40;;;3.10;;
16029;SDS011;34770;49.272;11.070;2022-07-29T07:55:14;5.70;;;3.00;;
16029;SDS011;34770;49.272;11.070;2022-07-29T07:57:40;3.83;;;3.22;;
16029;SDS011;34770;49.272;11.070;2022-07-29T08:00:05;4.35;;;3.88;;
16029;SDS011;34770;49.272;11.070;2022-07-29T08:02:31;4.53;;;3.15;;
16029;SDS011;34770;49.272;11.070;2022-07-29T08:04:57;3.50;;;3.13;;
16029;SDS011;34770;49.272;11.070;2022-07-29T08:07:22;4.50;;;3.72;;
16029;SDS011;34770;49.272;11.070;2022-07-29T08:09:48;5.97;;;3.00;;
16029;SDS011;34770;49.272;11.070;2022-07-29T08:12:13;3.40;;;2.75;;
16029;SDS011;34770;49.272;11.070;2022-07-29T08:14:38;8.32;;;2.95;;
16029;SDS011;34770;49.272;11.070;2022-07-29T08:17:04;5.60;;;3.05;;
16029;SDS011;34770;49.272;11.070;2022-07-29T08:19:29;2.95;;;2.55;;
16029;SDS011;34770;49.272;11.070;2022-07-29T08:21:55;3.33;;;2.53;;
16029;SDS011;34770;49.272;11.070;2022-07-29T08:24:21;5.93;;;2.97;;
16029;SDS011;34770;49.272;11.070;2022-07-29T08:27:05;3.22;;;2.63;;
16029;SDS011;34770;49.272;11.070;2022-07-29T08:29:31;3.25;;;2.33;;
16029;SDS011;34770;49.272;11.070;2022-07-29T08:31:56;5.63;;;3.00;;
16029;SDS011;34770;49.272;11.070;2022-07-29T08:34:21;4.18;;;3.03;;
16029;SDS011;34770;49.272;11.070;2022-07-29T08:36:47;3.88;;;2.75;;
16029;SDS011;34770;49.272;11.070;2022-07-29T08:39:12;2.83;;;2.60;;
16029;SDS011;34770;49.272;11.070;2022-07-29T08:41:38;5.03;;;2.80;;
16029;SDS011;34770;49.272;11.070;2022-07-29T08:44:03;3.00;;;2.35;;
16029;SDS011;34770;49.272;11.070;2022-07-29T08:46:29;2.75;;;2.55;;
16029;SDS011;34770;49.272;11.070;2022-07-29T08:48:54;4.63;;;2.90;;
16029;SDS011;34770;49.272;11.070;2022-07-29T08:51:21;5.93;;;2.60;;
16029;SDS011;34770;49.272;11.070;2022-07-29T08:53:47;4.38;;;2.70;;
16029;SDS011;34770;49.272;11.070;2022-07-29T08:56:14;3.75;;;2.78;;
16029;SDS011;34770;49.272;11.070;2022-07-29T08:58:45;5.18;;;3.00;;
16029;SDS011;34770;49.272;11.070;2022-07-29T09:01:16;3.10;;;2.80;;
16029;SDS011;34770;49.272;11.070;2022-07-29T09:03:43;4.78;;;2.70;;
16029;SDS011;34770;49.272;11.070;2022-07-29T09:06:14;3.45;;;2.47;;
16029;SDS011;34770;49.272;11.070;2022-07-29T09:08:41;4.10;;;2.65;;
16029;SDS011;34770;49.272;11.070;2022-07-29T09:11:07;3.58;;;2.55;;
16029;SDS011;34770;49.272;11.070;2022-07-29T09:13:33;4.88;;;2.75;;
16029;SDS011;34770;49.272;11.070;2022-07-29T09:15:59;3.90;;;2.65;;
16029;SDS011;34770;49.272;11.070;2022-07-29T09:18:35;3.75;;;2.95;;
16029;SDS011;34770;49.272;11.070;2022-07-29T09:21:06;3.55;;;2.58;;
16029;SDS011;34770;49.272;11.070;2022-07-29T09:26:32;4.10;;;2.50;;
16029;SDS011;34770;49.272;11.070;2022-07-29T09:28:59;4.25;;;2.28;;
16029;SDS011;34770;49.272;11.070;2022-07-29T09:31:34;5.18;;;2.53;;
16029;SDS011;34770;49.272;11.070;2022-07-29T09:34:02;2.63;;;2.33;;
16029;SDS011;34770;49.272;11.070;2022-07-29T09:36:28;2.97;;;2.20;;
16029;SDS011;34770;49.272;11.070;2022-07-29T09:39:00;5.00;;;3.10;;
16029;SDS011;34770;49.272;11.070;2022-07-29T09:41:28;2.90;;;2.17;;
16029;SDS011;34770;49.272;11.070;2022-07-29T09:43:57;3.63;;;2.55;;
16029;SDS011;34770;49.272;11.070;2022-07-29T09:46:24;4.43;;;2.85;;
16029;SDS011;34770;49.272;11.070;2022-07-29T09:49:05;3.55;;;2.42;;
16029;SDS011;34770;49.272;11.070;2022-07-29T09:51:31;2.67;;;2.47;;
16029;SDS011;34770;49.272;11.070;2022-07-29T09:53:56;2.80;;;2.40;;
16029;SDS011;34770;49.272;11.070;2022-07-29T09:56:40;3.65;;;2.15;;
16029;SDS011;34770;49.272;11.070;2022-07-29T09:59:07;3.33;;;2.03;;
16029;SDS011;34770;49.272;11.070;2022-07-29T10:01:33;2.60;;;2.25;;
16029;SDS011;34770;49.272;11.070;2022-07-29T10:04:00;6.22;;;2.80;;
16029;SDS011;34770;49.272;11.070;2022-07-29T10:06:26;2.90;;;2.42;;
16029;SDS011;34770;49.272;11.070;2022-07-29T10:08:51;4.32;;;2.30;;
16029;SDS011;34770;49.272;11.070;2022-07-29T10:11:17;2.42;;;2.10;;
16029;SDS011;34770;49.272;11.070;2022-07-29T10:13:44;3.17;;;2.25;;
16029;SDS011;34770;49.272;11.070;2022-07-29T10:16:12;3.22;;;1.92;;
16029;SDS011;34770;49.272;11.070;2022-07-29T10:18:39;4.28;;;2.30;;
16029;SDS011;34770;49.272;11.070;2022-07-29T10:21:05;4.25;;;2.10;;
16029;SDS011;34770;49.272;11.070;2022-07-29T10:23:32;6.45;;;2.60;;
16029;SDS011;34770;49.272;11.070;2022-07-29T10:25:59;2.60;;;2.33;;
16029;SDS011;34770;49.272;11.070;2022-07-29T10:28:25;3.80;;;2.00;;
16029;SDS011;34770;49.272;11.070;2022-07-29T10:30:51;6.13;;;2.40;;
16029;SDS011;34770;49.272;11.070;2022-07-29T10:44:17;2.28;;;1.90;;
16029;SDS011;34770;49.272;11.070;2022-07-29T10:46:45;1.90;;;1.75;;
16029;SDS011;34770;49.272;11.070;2022-07-29T10:49:15;2.85;;;1.80;;
16029;SDS011;34770;49.272;11.070;2022-07-29T11:00:25;5.45;;;2.38;;
16029;SDS011;34770;49.272;11.070;2022-07-29T11:05:05;2.45;;;2.25;;
16029;SDS011;34770;49.272;11.070;2022-07-29T11:07:33;5.40;;;1.95;;
16029;SDS011;34770;49.272;11.070;2022-07-29T11:15:03;2.72;;;2.15;;
16029;SDS011;34770;49.272;11.070;2022-07-29T11:20:30;3.47;;;1.80;;
16029;SDS011;34770;49.272;11.070;2022-07-29T11:23:01;1.90;;;1.70;;
16029;SDS011;34770;49.272;11.070;2022-07-29T11:25:42;3.20;;;2.30;;
16029;SDS011;34770;49.272;11.070;2022-07-29T11:28:13;2.75;;;2.10;;
16029;SDS011;34770;49.272;11.070;2022-07-29T11:30:53;3.50;;;1.77;;
16029;SDS011;34770;49.272;11.070;2022-07-29T11:33:26;1.88;;;1.70;;
16029;SDS011;34770;49.272;11.070;2022-07-29T11:36:08;4.60;;;1.88;;
16029;SDS011;34770;49.272;11.070;2022-07-29T11:38:35;3.05;;;2.10;;
16029;SDS011;34770;49.272;11.070;2022-07-29T11:43:56;1.92;;;1.77;;
16029;SDS011;34770;49.272;11.070;2022-07-29T11:49:23;3.33;;;1.52;;
16029;SDS011;34770;49.272;11.070;2022-07-29T11:51:53;8.90;;;1.60;;
16029;SDS011;34770;49.272;11.070;2022-07-29T11:54:24;1.80;;;1.60;;
16029;SDS011;34770;49.272;11.070;2022-07-29T11:56:55;2.03;;;1.80;;
16029;SDS011;34770;49.272;11.070;2022-07-29T11:59:22;2.10;;;1.90;;
16029;SDS011;34770;49.272;11.070;2022-07-29T12:01:56;1.80;;;1.38;;
16029;SDS011;34770;49.272;11.070;2022-07-29T12:04:23;2.17;;;1.60;;
16029;SDS011;34770;49.272;11.070;2022-07-29T12:06:52;2.40;;;1.90;;
16029;SDS011;34770;49.272;11.070;2022-07-29T12:09:20;1.45;;;1.35;;
16029;SDS011;34770;49.272;11.070;2022-07-29T12:11:47;1.92;;;1.80;;
16029;SDS011;34770;49.272;11.070;2022-07-29T12:14:29;2.10;;;1.70;;
16029;SDS011;34770;49.272;11.070;2022-07-29T12:16:56;1.90;;;1.67;;
16029;SDS011;34770;49.272;11.070;2022-07-29T12:19:22;1.90;;;1.80;;
16029;SDS011;34770;49.272;11.070;2022-07-29T12:21:52;1.60;;;1.50;;
16029;SDS011;34770;49.272;11.070;2022-07-29T12:24:19;1.92;;;1.83;;
16029;SDS011;34770;49.272;11.070;2022-07-29T12:26:53;2.22;;;2.03;;
16029;SDS011;34770;49.272;11.070;2022-07-29T12:29:20;2.67;;;1.83;;
16029;SDS011;34770;49.272;11.070;2022-07-29T12:31:45;4.18;;;1.92;;
16029;SDS011;34770;49.272;11.070;2022-07-29T12:34:12;1.85;;;1.70;;
16029;SDS011;34770;49.272;11.070;2022-07-29T12:36:39;6.55;;;2.10;;
16029;SDS011;34770;49.272;11.070;2022-07-29T12:39:06;2.13;;;1.88;;
16029;SDS011;34770;49.272;11.070;2022-07-29T12:41:34;2.00;;;1.70;;
16029;SDS011;34770;49.272;11.070;2022-07-29T12:43:59;2.88;;;1.95;;
16029;SDS011;34770;49.272;11.070;2022-07-29T12:46:25;4.25;;;2.33;;
16029;SDS011;34770;49.272;11.070;2022-07-29T12:48:51;2.05;;;1.70;;
16029;SDS011;34770;49.272;11.070;2022-07-29T12:51:34;2.10;;;1.90;;
16029;SDS011;34770;49.272;11.070;2022-07-29T12:54:08;4.65;;;1.90;;
16029;SDS011;34770;49.272;11.070;2022-07-29T12:56:39;2.03;;;1.83;;
16029;SDS011;34770;49.272;11.070;2022-07-29T12:59:17;2.03;;;1.90;;
16029;SDS011;34770;49.272;11.070;2022-07-29T13:01:45;2.72;;;2.08;;
16029;SDS011;34770;49.272;11.070;2022-07-29T13:04:27;3.10;;;2.17;;
16029;SDS011;34770;49.272;11.070;2022-07-29T13:06:58;4.30;;;2.30;;
16029;SDS011;34770;49.272;11.070;2022-07-29T13:09:36;3.65;;;2.10;;
16029;SDS011;34770;49.272;11.070;2022-07-29T13:12:06;5.07;;;2.25;;
16029;SDS011;34770;49.272;11.070;2022-07-29T13:17:09;2.92;;;2.00;;
16029;SDS011;34770;49.272;11.070;2022-07-29T13:19:38;2.47;;;2.28;;
16029;SDS011;34770;49.272;11.070;2022-07-29T13:22:17;5.45;;;1.70;;
16029;SDS011;34770;49.272;11.070;2022-07-29T13:24:54;3.33;;;2.33;;
16029;SDS011;34770;49.272;11.070;2022-07-29T13:27:28;3.15;;;1.98;;
16029;SDS011;34770;49.272;11.070;2022-07-29T13:29:57;2.33;;;1.65;;
16029;SDS011;34770;49.272;11.070;2022-07-29T13:32:27;2.80;;;1.75;;
16029;SDS011;34770;49.272;11.070;2022-07-29T13:34:57;2.90;;;2.10;;
16029;SDS011;34770;49.272;11.070;2022-07-29T13:37:25;2.55;;;2.00;;
16029;SDS011;34770;49.272;11.070;2022-07-29T13:39:51;2.92;;;1.80;;
16029;SDS011;34770;49.272;11.070;2022-07-29T13:42:17;2.05;;;1.85;;
16029;SDS011;34770;49.272;11.070;2022-07-29T13:44:42;2.83;;;1.70;;
16029;SDS011;34770;49.272;11.070;2022-07-29T13:47:08;4.15;;;1.70;;
16029;SDS011;34770;49.272;11.070;2022-07-29T13:49:34;1.83;;;1.50;;
16029;SDS011;34770;49.272;11.070;2022-07-29T13:52:00;2.58;;;1.50;;
16029;SDS011;34770;49.272;11.070;2022-07-29T13:54:26;1.70;;;1.50;;
16029;SDS011;34770;49.272;11.070;2022-07-29T13:56:51;4.05;;;1.50;;
16029;SDS011;34770;49.272;11.070;2022-07-29T13:59:17;5.70;;;2.63;;
16029;SDS011;34770;49.272;11.070;2022-07-29T14:01:42;3.67;;;1.95;;
16029;SDS011;34770;49.272;11.070;2022-07-29T14:04:09;2.90;;;1.88;;
16029;SDS011;34770;49.272;11.070;2022-07-29T14:06:35;5.47;;;2.30;;
16029;SDS011;34770;49.272;11.070;2022-07-29T14:09:01;2.78;;;2.35;;
16029;SDS011;34770;49.272;11.070;2022-07-29T14:11:27;4.13;;;2.42;;
16029;SDS011;34770;49.272;11.070;2022-07-29T14:13:53;3.17;;;2.22;;
16029;SDS011;34770;49.272;11.070;2022-07-29T14:16:18;4.78;;;2.08;;
16029;SDS011;34770;49.272;11.070;2022-07-29T14:18:43;2.63;;;2.17;;
16029;SDS011;34770;49.272;11.070;2022-07-29T14:21:09;5.18;;;2.05;;
16029;SDS011;34770;49.272;11.070;2022-07-29T14:23:34;4.15;;;2.60;;
16029;SDS011;34770;49.272;11.070;2022-07-29T14:26:00;3.20;;;2.10;;
16029;SDS011;34770;49.272;11.070;2022-07-29T14:28:25;4.90;;;2.28;;
16029;SDS011;34770;49.272;11.070;2022-07-29T14:30:50;2.35;;;1.98;;
16029;SDS011;34770;49.272;11.070;2022-07-29T14:33:16;2.13;;;1.73;;
16029;SDS011;34770;49.272;11.070;2022-07-29T14:35:41;4.38;;;2.30;;
16029;SDS011;34770;49.272;11.070;2022-07-29T14:38:07;5.43;;;2.22;;
16029;SDS011;34770;49.272;11.070;2022-07-29T14:40:32;2.63;;;2.00;;
16029;SDS011;34770;49.272;11.070;2022-07-29T14:42:57;2.83;;;2.03;;
16029;SDS011;34770;49.272;11.070;2022-07-29T14:45:23;2.80;;;2.58;;
16029;SDS011;34770;49.272;11.070;2022-07-29T14:47:48;4.45;;;2.72;;
16029;SDS011;34770;49.272;11.070;2022-07-29T14:50:15;5.20;;;2.72;;
16029;SDS011;34770;49.272;11.070;2022-07-29T14:52:41;5.13;;;2.35;;
16029;SDS011;34770;49.272;11.070;2022-07-29T14:55:07;2.88;;;2.40;;
16029;SDS011;34770;49.272;11.070;2022-07-29T14:57:32;3.10;;;2.45;;
16029;SDS011;34770;49.272;11.070;2022-07-29T14:59:58;4.65;;;2.45;;
16029;SDS011;34770;49.272;11.070;2022-07-29T15:02:23;2.30;;;2.10;;
16029;SDS011;34770;49.272;11.070;2022-07-29T15:04:49;3.17;;;1.95;;
16029;SDS011;34770;49.272;11.070;2022-07-29T15:07:14;3.80;;;2.20;;
16029;SDS011;34770;49.272;11.070;2022-07-29T15:09:40;2.95;;;1.92;;
16029;SDS011;34770;49.272;11.070;2022-07-29T15:12:06;2.45;;;2.25;;
16029;SDS011;34770;49.272;11.070;2022-07-29T15:14:32;2.40;;;2.20;;
16029;SDS011;34770;49.272;11.070;2022-07-29T15:16:58;9.10;;;3.53;;
16029;SDS011;34770;49.272;11.070;2022-07-29T15:19:23;2.58;;;2.30;;
16029;SDS011;34770;49.272;11.070;2022-07-29T15:21:49;2.70;;;2.50;;
16029;SDS011;34770;49.272;11.070;2022-07-29T15:24:15;4.10;;;2.58;;
16029;SDS011;34770;49.272;11.070;2022-07-29T15:26:41;6.30;;;2.67;;
16029;SDS011;34770;49.272;11.070;2022-07-29T15:29:07;4.50;;;2.35;;
16029;SDS011;34770;49.272;11.070;2022-07-29T15:31:32;2.75;;;2.55;;
16029;SDS011;34770;49.272;11.070;2022-07-29T15:33:58;3.03;;;2.70;;
16029;SDS011;34770;49.272;11.070;2022-07-29T15:36:23;3.65;;;2.53;;